Adelaide, California
Current Conditions -  °F | °C
As of 7:53 AM on Wednesday 22 Oct 2014 (Local Time) from KPRB Reporting Station
Clear Clear  
Wind Chill: 43°   Ceiling: Unl
Heat Index: 43°   Visibility: 10mi
Dew Point: 37°   Wind: 0mph
Humidity: 80%   Direction: NA
Pressure: 30.04"   Gusts: NA
Location:  35.6618°N, 120.707°W
Report Text: KPRB 221453Z AUTO 00000KT 10SM CLR 06/03 A3004 RMK AO2 SLP171 T00610028 53008 TSNO
Loading
Personal Weather Stations






























Interactive Weather Map New forecast layout! Learn more

10-Day Weather Forecast

Advertisements
Track Severe Weather on mobile